Terminal Aerodrome Forecast
Issued by NWS Green Bay, WI

Home | Current Version | Previous Version | Graphics & Text | Print | Product List | Glossary On
Versions: 1 2 3 4 5 6 7 8 9 10 11 12 13 14 15 16 17 18 19 20 21 22 23 24 25 26 27 28 29 30 31 32 33 34 35
000
FTUS43 KGRB 222300
TAFGRB
TAF
KGRB 222329Z 2300/2324 36013KT P6SM SCT060
     FM230200 01008KT P6SM FEW070
     FM230600 01004KT P6SM SKC
     FM231500 04007KT P6SM BKN250
     FM232000 12008KT P6SM SCT070 BKN100=

USA.gov is the U.S. government's official web portal to all federal, state and local government web resources and services.